sensor_id;sensor_type;location;lat;lon;timestamp;pressure;altitude;pressure_sealevel;temperature;humidity
54172;BME280;40076;52.354;4.970;2022-12-18T00:00:42;102825.19;;;-1.93;100.00
54172;BME280;40076;52.354;4.970;2022-12-18T00:03:07;102821.44;;;-1.99;100.00
54172;BME280;40076;52.354;4.970;2022-12-18T00:05:33;102822.44;;;-2.00;100.00
54172;BME280;40076;52.354;4.970;2022-12-18T00:07:58;102810.22;;;-2.01;100.00
54172;BME280;40076;52.354;4.970;2022-12-18T00:10:24;102818.97;;;-2.00;100.00
54172;BME280;40076;52.354;4.970;2022-12-18T00:12:49;102814.50;;;-2.00;100.00
54172;BME280;40076;52.354;4.970;2022-12-18T00:15:15;102812.88;;;-2.01;100.00
54172;BME280;40076;52.354;4.970;2022-12-18T00:17:40;102817.16;;;-2.00;100.00
54172;BME280;40076;52.354;4.970;2022-12-18T00:20:06;102817.16;;;-2.00;100.00
54172;BME280;40076;52.354;4.970;2022-12-18T00:22:32;102812.69;;;-1.99;100.00
54172;BME280;40076;52.354;4.970;2022-12-18T00:24:57;102822.44;;;-2.00;100.00
54172;BME280;40076;52.354;4.970;2022-12-18T00:27:22;102828.75;;;-2.01;100.00
54172;BME280;40076;52.354;4.970;2022-12-18T00:29:48;102812.22;;;-2.03;100.00
54172;BME280;40076;52.354;4.970;2022-12-18T00:32:13;102810.41;;;-2.02;100.00
54172;BME280;40076;52.354;4.970;2022-12-18T00:34:39;102804.72;;;-1.99;100.00
54172;BME280;40076;52.354;4.970;2022-12-18T00:37:04;102801.88;;;-1.98;100.00
54172;BME280;40076;52.354;4.970;2022-12-18T00:39:29;102803.53;;;-1.97;100.00
54172;BME280;40076;52.354;4.970;2022-12-18T00:41:54;102808.81;;;-1.97;100.00
54172;BME280;40076;52.354;4.970;2022-12-18T00:44:38;102816.94;;;-1.98;100.00
54172;BME280;40076;52.354;4.970;2022-12-18T00:47:04;102811.03;;;-2.00;100.00
54172;BME280;40076;52.354;4.970;2022-12-18T00:49:29;102812.88;;;-2.01;100.00
54172;BME280;40076;52.354;4.970;2022-12-18T00:51:54;102812.22;;;-2.03;100.00
54172;BME280;40076;52.354;4.970;2022-12-18T00:54:20;102806.28;;;-2.05;100.00
54172;BME280;40076;52.354;4.970;2022-12-18T00:56:45;102815.03;;;-2.04;100.00
54172;BME280;40076;52.354;4.970;2022-12-18T00:59:11;102810.16;;;-2.07;100.00
54172;BME280;40076;52.354;4.970;2022-12-18T01:01:36;102813.97;;;-2.10;100.00
54172;BME280;40076;52.354;4.970;2022-12-18T01:04:02;102807.44;;;-2.14;100.00
54172;BME280;40076;52.354;4.970;2022-12-18T01:06:28;102812.06;;;-2.16;100.00
54172;BME280;40076;52.354;4.970;2022-12-18T01:08:54;102813.66;;;-2.21;100.00
54172;BME280;40076;52.354;4.970;2022-12-18T01:11:20;102816.28;;;-2.21;100.00
54172;BME280;40076;52.354;4.970;2022-12-18T01:13:46;102818.31;;;-2.23;100.00
54172;BME280;40076;52.354;4.970;2022-12-18T01:16:13;102811.78;;;-2.21;100.00
54172;BME280;40076;52.354;4.970;2022-12-18T01:18:38;102822.22;;;-2.19;100.00
54172;BME280;40076;52.354;4.970;2022-12-18T01:21:08;102810.59;;;-2.18;100.00
54172;BME280;40076;52.354;4.970;2022-12-18T01:23:34;102811.25;;;-2.16;100.00
54172;BME280;40076;52.354;4.970;2022-12-18T01:26:08;102807.59;;;-2.15;100.00
54172;BME280;40076;52.354;4.970;2022-12-18T01:28:33;102816.16;;;-2.13;100.00
54172;BME280;40076;52.354;4.970;2022-12-18T01:31:10;102825.13;;;-2.14;100.00
54172;BME280;40076;52.354;4.970;2022-12-18T01:33:35;102826.97;;;-2.15;100.00
54172;BME280;40076;52.354;4.970;2022-12-18T01:36:01;102824.50;;;-2.16;100.00
54172;BME280;40076;52.354;4.970;2022-12-18T01:38:28;102823.84;;;-2.18;100.00
54172;BME280;40076;52.354;4.970;2022-12-18T01:41:00;102815.66;;;-2.23;100.00
54172;BME280;40076;52.354;4.970;2022-12-18T01:43:44;102824.34;;;-2.29;100.00
54172;BME280;40076;52.354;4.970;2022-12-18T01:46:10;102824.69;;;-2.33;100.00
54172;BME280;40076;52.354;4.970;2022-12-18T01:48:36;102825.28;;;-2.37;100.00
54172;BME280;40076;52.354;4.970;2022-12-18T01:51:01;102839.69;;;-2.40;100.00
54172;BME280;40076;52.354;4.970;2022-12-18T01:53:27;102838.38;;;-2.44;100.00
54172;BME280;40076;52.354;4.970;2022-12-18T01:55:55;102840.59;;;-2.47;100.00
54172;BME280;40076;52.354;4.970;2022-12-18T01:58:25;102844.91;;;-2.46;100.00
54172;BME280;40076;52.354;4.970;2022-12-18T02:00:54;102848.53;;;-2.47;100.00
54172;BME280;40076;52.354;4.970;2022-12-18T02:03:20;102855.31;;;-2.45;100.00
54172;BME280;40076;52.354;4.970;2022-12-18T02:06:20;102859.56;;;-2.44;100.00
54172;BME280;40076;52.354;4.970;2022-12-18T02:09:07;102867.50;;;-2.44;100.00
54172;BME280;40076;52.354;4.970;2022-12-18T02:12:22;102868.97;;;-2.41;100.00
54172;BME280;40076;52.354;4.970;2022-12-18T02:17:10;102875.00;;;-2.33;100.00
54172;BME280;40076;52.354;4.970;2022-12-18T02:22:49;102878.56;;;-2.25;100.00
54172;BME280;40076;52.354;4.970;2022-12-18T02:25:43;102868.78;;;-2.25;100.00
54172;BME280;40076;52.354;4.970;2022-12-18T02:28:13;102857.19;;;-2.24;100.00
54172;BME280;40076;52.354;4.970;2022-12-18T02:30:42;102853.72;;;-2.24;100.00
54172;BME280;40076;52.354;4.970;2022-12-18T02:33:08;102852.72;;;-2.23;100.00
54172;BME280;40076;52.354;4.970;2022-12-18T02:35:36;102847.59;;;-2.25;100.00
54172;BME280;40076;52.354;4.970;2022-12-18T02:38:04;102835.38;;;-2.26;100.00
54172;BME280;40076;52.354;4.970;2022-12-18T02:40:30;102833.53;;;-2.25;100.00
54172;BME280;40076;52.354;4.970;2022-12-18T02:43:02;102834.53;;;-2.26;100.00
54172;BME280;40076;52.354;4.970;2022-12-18T02:45:28;102826.59;;;-2.26;100.00
54172;BME280;40076;52.354;4.970;2022-12-18T02:47:53;102824.34;;;-2.29;100.00
54172;BME280;40076;52.354;4.970;2022-12-18T02:50:32;102822.06;;;-2.33;100.00
54172;BME280;40076;52.354;4.970;2022-12-18T02:53:27;102820.59;;;-2.35;100.00
54172;BME280;40076;52.354;4.970;2022-12-18T02:56:05;102810.22;;;-2.37;100.00
54172;BME280;40076;52.354;4.970;2022-12-18T03:01:16;102809.56;;;-2.39;100.00
54172;BME280;40076;52.354;4.970;2022-12-18T03:03:55;102807.09;;;-2.40;100.00
54172;BME280;40076;52.354;4.970;2022-12-18T03:08:54;102810.31;;;-2.45;100.00
54172;BME280;40076;52.354;4.970;2022-12-18T03:11:21;102811.47;;;-2.47;100.00
54172;BME280;40076;52.354;4.970;2022-12-18T03:14:07;102814.31;;;-2.49;100.00
54172;BME280;40076;52.354;4.970;2022-12-18T03:16:33;102802.91;;;-2.49;100.00
54172;BME280;40076;52.354;4.970;2022-12-18T03:19:10;102803.06;;;-2.51;100.00
54172;BME280;40076;52.354;4.970;2022-12-18T03:21:40;102805.72;;;-2.51;100.00
54172;BME280;40076;52.354;4.970;2022-12-18T03:24:09;102810.00;;;-2.50;100.00
54172;BME280;40076;52.354;4.970;2022-12-18T03:26:38;102806.38;;;-2.49;100.00
54172;BME280;40076;52.354;4.970;2022-12-18T03:29:13;102794.97;;;-2.49;100.00
54172;BME280;40076;52.354;4.970;2022-12-18T03:31:45;102791.47;;;-2.50;100.00
54172;BME280;40076;52.354;4.970;2022-12-18T03:34:17;102790.66;;;-2.50;100.00
54172;BME280;40076;52.354;4.970;2022-12-18T03:36:46;102787.19;;;-2.51;100.00
54172;BME280;40076;52.354;4.970;2022-12-18T03:39:11;102797.16;;;-2.53;100.00
54172;BME280;40076;52.354;4.970;2022-12-18T03:41:57;102785.75;;;-2.53;100.00
54172;BME280;40076;52.354;4.970;2022-12-18T03:44:29;102784.09;;;-2.54;100.00
54172;BME280;40076;52.354;4.970;2022-12-18T03:47:19;102784.94;;;-2.54;100.00
54172;BME280;40076;52.354;4.970;2022-12-18T03:52:36;102776.69;;;-2.59;100.00
54172;BME280;40076;52.354;4.970;2022-12-18T03:55:05;102781.00;;;-2.58;100.00
54172;BME280;40076;52.354;4.970;2022-12-18T03:57:31;102776.69;;;-2.59;100.00
54172;BME280;40076;52.354;4.970;2022-12-18T04:00:04;102771.41;;;-2.59;100.00
54172;BME280;40076;52.354;4.970;2022-12-18T04:02:31;102775.09;;;-2.60;100.00
54172;BME280;40076;52.354;4.970;2022-12-18T04:04:59;102765.50;;;-2.61;100.00
54172;BME280;40076;52.354;4.970;2022-12-18T04:07:27;102762.03;;;-2.61;100.00
54172;BME280;40076;52.354;4.970;2022-12-18T04:09:56;102756.09;;;-2.63;100.00
54172;BME280;40076;52.354;4.970;2022-12-18T04:12:26;102756.28;;;-2.65;100.00
54172;BME280;40076;52.354;4.970;2022-12-18T04:14:53;102751.97;;;-2.66;100.00
54172;BME280;40076;52.354;4.970;2022-12-18T04:17:19;102755.44;;;-2.65;100.00
54172;BME280;40076;52.354;4.970;2022-12-18T04:19:45;102754.63;;;-2.66;100.00
54172;BME280;40076;52.354;4.970;2022-12-18T04:22:10;102752.81;;;-2.65;100.00
54172;BME280;40076;52.354;4.970;2022-12-18T04:24:36;102749.34;;;-2.66;100.00
54172;BME280;40076;52.354;4.970;2022-12-18T04:27:01;102748.72;;;-2.68;100.00
54172;BME280;40076;52.354;4.970;2022-12-18T04:29:27;102754.00;;;-2.68;100.00
54172;BME280;40076;52.354;4.970;2022-12-18T04:31:53;102757.47;;;-2.67;100.00
54172;BME280;40076;52.354;4.970;2022-12-18T04:34:19;102761.13;;;-2.68;100.00
54172;BME280;40076;52.354;4.970;2022-12-18T04:36:45;102763.56;;;-2.67;100.00
54172;BME280;40076;52.354;4.970;2022-12-18T04:39:10;102768.69;;;-2.65;100.00
54172;BME280;40076;52.354;4.970;2022-12-18T04:41:36;102779.09;;;-2.64;100.00
54172;BME280;40076;52.354;4.970;2022-12-18T04:44:01;102775.44;;;-2.63;100.00
54172;BME280;40076;52.354;4.970;2022-12-18T04:46:26;102779.91;;;-2.63;100.00
54172;BME280;40076;52.354;4.970;2022-12-18T04:48:52;102780.09;;;-2.65;100.00
54172;BME280;40076;52.354;4.970;2022-12-18T04:51:17;102786.19;;;-2.64;100.00
54172;BME280;40076;52.354;4.970;2022-12-18T04:53:43;102794.97;;;-2.64;100.00
54172;BME280;40076;52.354;4.970;2022-12-18T04:56:11;102797.63;;;-2.64;100.00
54172;BME280;40076;52.354;4.970;2022-12-18T04:58:37;102794.97;;;-2.64;100.00
54172;BME280;40076;52.354;4.970;2022-12-18T05:01:03;102803.09;;;-2.65;100.00
54172;BME280;40076;52.354;4.970;2022-12-18T05:03:29;102815.31;;;-2.64;100.00
54172;BME280;40076;52.354;4.970;2022-12-18T05:05:54;102812.84;;;-2.66;100.00
54172;BME280;40076;52.354;4.970;2022-12-18T05:08:20;102809.59;;;-2.68;100.00
54172;BME280;40076;52.354;4.970;2022-12-18T05:10:45;102805.47;;;-2.70;100.00
54172;BME280;40076;52.354;4.970;2022-12-18T05:13:10;102798.09;;;-2.75;100.00
54172;BME280;40076;52.354;4.970;2022-12-18T05:15:36;102798.44;;;-2.78;100.00
54172;BME280;40076;52.354;4.970;2022-12-18T05:18:03;102805.72;;;-2.80;100.00
54172;BME280;40076;52.354;4.970;2022-12-18T05:20:28;102811.03;;;-2.80;100.00
54172;BME280;40076;52.354;4.970;2022-12-18T05:22:54;102814.50;;;-2.80;100.00
54172;BME280;40076;52.354;4.970;2022-12-18T05:25:20;102817.31;;;-2.81;100.00
54172;BME280;40076;52.354;4.970;2022-12-18T05:27:46;102815.88;;;-2.84;100.00
54172;BME280;40076;52.354;4.970;2022-12-18T05:30:12;102814.22;;;-2.85;100.00
54172;BME280;40076;52.354;4.970;2022-12-18T05:32:38;102813.41;;;-2.85;100.00
54172;BME280;40076;52.354;4.970;2022-12-18T05:35:04;102802.34;;;-2.89;100.00
54172;BME280;40076;52.354;4.970;2022-12-18T05:37:30;102796.63;;;-2.92;100.00
54172;BME280;40076;52.354;4.970;2022-12-18T05:39:55;102791.69;;;-2.95;100.00
54172;BME280;40076;52.354;4.970;2022-12-18T05:42:21;102792.41;;;-3.01;100.00
54172;BME280;40076;52.354;4.970;2022-12-18T05:44:46;102788.13;;;-3.02;100.00
54172;BME280;40076;52.354;4.970;2022-12-18T05:47:12;102791.94;;;-3.05;100.00
54172;BME280;40076;52.354;4.970;2022-12-18T05:49:37;102790.31;;;-3.06;100.00
54172;BME280;40076;52.354;4.970;2022-12-18T05:52:02;102782.72;;;-3.09;100.00
54172;BME280;40076;52.354;4.970;2022-12-18T05:54:28;102780.44;;;-3.12;100.00
54172;BME280;40076;52.354;4.970;2022-12-18T05:56:53;102782.25;;;-3.13;100.00
54172;BME280;40076;52.354;4.970;2022-12-18T05:59:19;102781.63;;;-3.15;100.00
54172;BME280;40076;52.354;4.970;2022-12-18T06:01:45;102781.81;;;-3.16;100.00
54172;BME280;40076;52.354;4.970;2022-12-18T06:04:10;102772.22;;;-3.17;100.00
54172;BME280;40076;52.354;4.970;2022-12-18T06:06:35;102767.13;;;-3.19;100.00
54172;BME280;40076;52.354;4.970;2022-12-18T06:09:02;102760.19;;;-3.20;100.00
54172;BME280;40076;52.354;4.970;2022-12-18T06:11:36;102769.13;;;-3.21;100.00
54172;BME280;40076;52.354;4.970;2022-12-18T06:14:03;102775.44;;;-3.22;100.00
54172;BME280;40076;52.354;4.970;2022-12-18T06:16:28;102774.78;;;-3.24;100.00
54172;BME280;40076;52.354;4.970;2022-12-18T06:19:02;102783.72;;;-3.25;100.00
54172;BME280;40076;52.354;4.970;2022-12-18T06:21:28;102775.78;;;-3.25;100.00
54172;BME280;40076;52.354;4.970;2022-12-18T06:23:54;102771.66;;;-3.27;100.00
54172;BME280;40076;52.354;4.970;2022-12-18T06:26:19;102775.50;;;-3.30;100.00
54172;BME280;40076;52.354;4.970;2022-12-18T06:28:45;102769.38;;;-3.30;100.00
54172;BME280;40076;52.354;4.970;2022-12-18T06:31:10;102767.09;;;-3.33;100.00
54172;BME280;40076;52.354;4.970;2022-12-18T06:33:36;102761.81;;;-3.33;100.00
54172;BME280;40076;52.354;4.970;2022-12-18T06:36:08;102751.22;;;-3.33;100.00
54172;BME280;40076;52.354;4.970;2022-12-18T06:38:34;102736.56;;;-3.36;100.00
54172;BME280;40076;52.354;4.970;2022-12-18T06:41:00;102727.00;;;-3.37;100.00
54172;BME280;40076;52.354;4.970;2022-12-18T06:43:25;102719.06;;;-3.37;100.00
54172;BME280;40076;52.354;4.970;2022-12-18T06:45:58;102716.94;;;-3.41;100.00
54172;BME280;40076;52.354;4.970;2022-12-18T06:48:24;102707.38;;;-3.42;100.00
54172;BME280;40076;52.354;4.970;2022-12-18T06:50:50;102709.56;;;-3.46;100.00
54172;BME280;40076;52.354;4.970;2022-12-18T06:53:15;102708.28;;;-3.50;100.00
54172;BME280;40076;52.354;4.970;2022-12-18T06:55:40;102707.84;;;-3.54;100.00
54172;BME280;40076;52.354;4.970;2022-12-18T06:58:06;102708.00;;;-3.55;100.00
54172;BME280;40076;52.354;4.970;2022-12-18T07:00:31;102701.91;;;-3.56;100.00
54172;BME280;40076;52.354;4.970;2022-12-18T07:02:57;102708.19;;;-3.57;100.00
54172;BME280;40076;52.354;4.970;2022-12-18T07:05:22;102702.06;;;-3.57;100.00
54172;BME280;40076;52.354;4.970;2022-12-18T07:07:48;102705.53;;;-3.57;100.00
54172;BME280;40076;52.354;4.970;2022-12-18T07:10:13;102706.34;;;-3.56;100.00
54172;BME280;40076;52.354;4.970;2022-12-18T07:12:38;102712.63;;;-3.57;100.00
54172;BME280;40076;52.354;4.970;2022-12-18T07:15:04;102713.47;;;-3.57;100.00
54172;BME280;40076;52.354;4.970;2022-12-18T07:17:29;102712.47;;;-3.56;100.00
54172;BME280;40076;52.354;4.970;2022-12-18T07:19:55;102705.34;;;-3.55;100.00
54172;BME280;40076;52.354;4.970;2022-12-18T07:22:21;102708.81;;;-3.55;100.00
54172;BME280;40076;52.354;4.970;2022-12-18T07:24:46;102705.34;;;-3.55;100.00
54172;BME280;40076;52.354;4.970;2022-12-18T07:27:14;102701.72;;;-3.54;100.00
54172;BME280;40076;52.354;4.970;2022-12-18T07:29:40;102700.91;;;-3.55;100.00
54172;BME280;40076;52.354;4.970;2022-12-18T07:32:05;102697.44;;;-3.55;100.00
54172;BME280;40076;52.354;4.970;2022-12-18T07:34:32;102687.22;;;-3.58;100.00
54172;BME280;40076;52.354;4.970;2022-12-18T07:36:57;102676.03;;;-3.60;100.00
54172;BME280;40076;52.354;4.970;2022-12-18T07:39:22;102665.81;;;-3.63;100.00
54172;BME280;40076;52.354;4.970;2022-12-18T07:41:48;102660.06;;;-3.67;100.00
54172;BME280;40076;52.354;4.970;2022-12-18T07:44:33;102649.22;;;-3.72;100.00
54172;BME280;40076;52.354;4.970;2022-12-18T07:46:58;102652.84;;;-3.73;100.00
54172;BME280;40076;52.354;4.970;2022-12-18T07:49:24;102644.31;;;-3.75;100.00
54172;BME280;40076;52.354;4.970;2022-12-18T07:51:49;102643.47;;;-3.75;100.00
54172;BME280;40076;52.354;4.970;2022-12-18T07:54:15;102635.06;;;-3.79;100.00
54172;BME280;40076;52.354;4.970;2022-12-18T07:56:40;102632.25;;;-3.77;100.00
54172;BME280;40076;52.354;4.970;2022-12-18T07:59:07;102630.63;;;-3.78;100.00
54172;BME280;40076;52.354;4.970;2022-12-18T08:01:33;102627.97;;;-3.78;100.00
54172;BME280;40076;52.354;4.970;2022-12-18T08:03:58;102630.44;;;-3.77;100.00
54172;BME280;40076;52.354;4.970;2022-12-18T08:06:27;102638.38;;;-3.77;100.00
54172;BME280;40076;52.354;4.970;2022-12-18T08:08:53;102643.66;;;-3.77;100.00
54172;BME280;40076;52.354;4.970;2022-12-18T08:11:19;102647.75;;;-3.74;100.00
54172;BME280;40076;52.354;4.970;2022-12-18T08:13:44;102657.94;;;-3.71;100.00
54172;BME280;40076;52.354;4.970;2022-12-18T08:16:10;102670.16;;;-3.70;100.00
54172;BME280;40076;52.354;4.970;2022-12-18T08:18:36;102673.47;;;-3.68;100.00
54172;BME280;40076;52.354;4.970;2022-12-18T08:21:29;102674.28;;;-3.68;100.00
54172;BME280;40076;52.354;4.970;2022-12-18T08:23:58;102681.22;;;-3.67;100.00
54172;BME280;40076;52.354;4.970;2022-12-18T08:26:25;102677.91;;;-3.69;100.00
54172;BME280;40076;52.354;4.970;2022-12-18T08:28:51;102683.84;;;-3.67;100.00
54172;BME280;40076;52.354;4.970;2022-12-18T08:31:18;102677.75;;;-3.67;100.00
54172;BME280;40076;52.354;4.970;2022-12-18T08:33:48;102676.53;;;-3.65;100.00
54172;BME280;40076;52.354;4.970;2022-12-18T08:36:14;102661.69;;;-3.66;100.00
54172;BME280;40076;52.354;4.970;2022-12-18T08:38:39;102663.97;;;-3.63;100.00
54172;BME280;40076;52.354;4.970;2022-12-18T08:41:07;102658.88;;;-3.64;100.00
54172;BME280;40076;52.354;4.970;2022-12-18T08:43:34;102662.50;;;-3.65;100.00
54172;BME280;40076;52.354;4.970;2022-12-18T08:46:18;102673.09;;;-3.65;100.00
54172;BME280;40076;52.354;4.970;2022-12-18T08:48:44;102666.97;;;-3.66;100.00
54172;BME280;40076;52.354;4.970;2022-12-18T08:51:10;102665.34;;;-3.67;100.00
54172;BME280;40076;52.354;4.970;2022-12-18T08:53:36;102667.78;;;-3.65;100.00
54172;BME280;40076;52.354;4.970;2022-12-18T08:56:02;102657.06;;;-3.64;100.00
54172;BME280;40076;52.354;4.970;2022-12-18T08:58:28;102650.78;;;-3.63;100.00
54172;BME280;40076;52.354;4.970;2022-12-18T09:01:03;102650.59;;;-3.61;100.00
54172;BME280;40076;52.354;4.970;2022-12-18T09:03:29;102642.50;;;-3.60;100.00
54172;BME280;40076;52.354;4.970;2022-12-18T09:05:54;102644.75;;;-3.57;100.00
54172;BME280;40076;52.354;4.970;2022-12-18T09:08:19;102654.34;;;-3.56;100.00
54172;BME280;40076;52.354;4.970;2022-12-18T09:10:46;102661.09;;;-3.53;100.00
54172;BME280;40076;52.354;4.970;2022-12-18T09:13:13;102662.53;;;-3.51;100.00
54172;BME280;40076;52.354;4.970;2022-12-18T09:15:44;102656.25;;;-3.50;100.00
54172;BME280;40076;52.354;4.970;2022-12-18T09:18:11;102655.06;;;-3.47;100.00
54172;BME280;40076;52.354;4.970;2022-12-18T09:20:37;102650.63;;;-3.46;100.00
54172;BME280;40076;52.354;4.970;2022-12-18T09:23:03;102655.72;;;-3.45;100.00
54172;BME280;40076;52.354;4.970;2022-12-18T09:25:29;102655.53;;;-3.43;100.00
54172;BME280;40076;52.354;4.970;2022-12-18T09:28:13;102650.25;;;-3.43;100.00
54172;BME280;40076;52.354;4.970;2022-12-18T09:30:40;102648.78;;;-3.46;100.00
54172;BME280;40076;52.354;4.970;2022-12-18T09:33:06;102641.69;;;-3.45;100.00
54172;BME280;40076;52.354;4.970;2022-12-18T09:35:32;102632.28;;;-3.48;100.00
54172;BME280;40076;52.354;4.970;2022-12-18T09:38:00;102631.13;;;-3.45;100.00
54172;BME280;40076;52.354;4.970;2022-12-18T09:40:28;102629.13;;;-3.43;100.00
54172;BME280;40076;52.354;4.970;2022-12-18T09:43:01;102619.16;;;-3.41;100.00
54172;BME280;40076;52.354;4.970;2022-12-18T09:45:32;102626.91;;;-3.40;100.00
54172;BME280;40076;52.354;4.970;2022-12-18T09:48:03;102618.63;;;-3.37;100.00
54172;BME280;40076;52.354;4.970;2022-12-18T09:50:34;102615.78;;;-3.35;100.00
54172;BME280;40076;52.354;4.970;2022-12-18T09:53:13;102606.50;;;-3.31;100.00
54172;BME280;40076;52.354;4.970;2022-12-18T09:55:48;102604.50;;;-3.29;100.00
54172;BME280;40076;52.354;4.970;2022-12-18T09:58:41;102597.81;;;-3.25;100.00
54172;BME280;40076;52.354;4.970;2022-12-18T10:01:12;102596.00;;;-3.25;100.00
54172;BME280;40076;52.354;4.970;2022-12-18T10:03:39;102597.66;;;-3.24;100.00
54172;BME280;40076;52.354;4.970;2022-12-18T10:06:39;102608.66;;;-3.20;100.00
54172;BME280;40076;52.354;4.970;2022-12-18T10:19:29;102616.97;;;-3.08;100.00
54172;BME280;40076;52.354;4.970;2022-12-18T10:27:46;102608.75;;;-2.99;100.00
54172;BME280;40076;52.354;4.970;2022-12-18T10:30:14;102608.34;;;-2.96;100.00
54172;BME280;40076;52.354;4.970;2022-12-18T10:32:40;102604.53;;;-2.93;100.00
54172;BME280;40076;52.354;4.970;2022-12-18T10:35:15;102606.59;;;-2.89;100.00
54172;BME280;40076;52.354;4.970;2022-12-18T10:38:03;102593.84;;;-2.85;100.00
54172;BME280;40076;52.354;4.970;2022-12-18T10:40:29;102590.78;;;-2.82;100.00
54172;BME280;40076;52.354;4.970;2022-12-18T10:43:12;102584.97;;;-2.78;100.00
54172;BME280;40076;52.354;4.970;2022-12-18T10:45:38;102577.84;;;-2.77;100.00
54172;BME280;40076;52.354;4.970;2022-12-18T10:48:04;102580.09;;;-2.74;100.00
54172;BME280;40076;52.354;4.970;2022-12-18T10:50:46;102585.84;;;-2.70;100.00
54172;BME280;40076;52.354;4.970;2022-12-18T10:53:18;102570.63;;;-2.68;100.00
54172;BME280;40076;52.354;4.970;2022-12-18T10:55:45;102553.53;;;-2.66;100.00
54172;BME280;40076;52.354;4.970;2022-12-18T10:58:29;102553.16;;;-2.63;100.00
54172;BME280;40076;52.354;4.970;2022-12-18T11:01:17;102544.03;;;-2.60;100.00
54172;BME280;40076;52.354;4.970;2022-12-18T11:06:21;102546.72;;;-2.54;100.00
54172;BME280;40076;52.354;4.970;2022-12-18T11:09:00;102541.03;;;-2.51;100.00
54172;BME280;40076;52.354;4.970;2022-12-18T11:11:27;102541.50;;;-2.47;100.00
54172;BME280;40076;52.354;4.970;2022-12-18T11:14:03;102541.91;;;-2.44;100.00
54172;BME280;40076;52.354;4.970;2022-12-18T11:16:33;102534.59;;;-2.42;100.00
54172;BME280;40076;52.354;4.970;2022-12-18T11:19:17;102531.19;;;-2.36;100.00
54172;BME280;40076;52.354;4.970;2022-12-18T11:21:45;102530.19;;;-2.35;100.00
54172;BME280;40076;52.354;4.970;2022-12-18T11:24:34;102530.63;;;-2.31;100.00
54172;BME280;40076;52.354;4.970;2022-12-18T11:27:02;102538.81;;;-2.26;100.00
54172;BME280;40076;52.354;4.970;2022-12-18T11:29:37;102538.63;;;-2.24;100.00
54172;BME280;40076;52.354;4.970;2022-12-18T11:32:24;102538.84;;;-2.19;100.00
54172;BME280;40076;52.354;4.970;2022-12-18T11:34:58;102532.38;;;-2.17;100.00
54172;BME280;40076;52.354;4.970;2022-12-18T11:37:24;102525.66;;;-2.13;100.00
54172;BME280;40076;52.354;4.970;2022-12-18T11:40:11;102520.16;;;-2.11;100.00
54172;BME280;40076;52.354;4.970;2022-12-18T11:42:48;102514.69;;;-2.10;100.00
54172;BME280;40076;52.354;4.970;2022-12-18T11:45:26;102511.66;;;-2.07;100.00
54172;BME280;40076;52.354;4.970;2022-12-18T11:47:57;102501.47;;;-2.03;100.00
54172;BME280;40076;52.354;4.970;2022-12-18T11:52:58;102486.44;;;-1.96;100.00
54172;BME280;40076;52.354;4.970;2022-12-18T11:55:49;102478.13;;;-1.93;100.00
54172;BME280;40076;52.354;4.970;2022-12-18T12:03:39;102448.00;;;-1.85;100.00
54172;BME280;40076;52.354;4.970;2022-12-18T12:06:20;102450.22;;;-1.82;100.00
54172;BME280;40076;52.354;4.970;2022-12-18T12:09:09;102448.84;;;-1.78;100.00
54172;BME280;40076;52.354;4.970;2022-12-18T12:17:41;102449.50;;;-1.70;100.00
54172;BME280;40076;52.354;4.970;2022-12-18T12:20:51;102424.00;;;-1.64;100.00
54172;BME280;40076;52.354;4.970;2022-12-18T12:26:30;102424.44;;;-1.61;100.00
54172;BME280;40076;52.354;4.970;2022-12-18T12:38:26;102416.72;;;-1.49;100.00
54172;BME280;40076;52.354;4.970;2022-12-18T12:41:08;102409.41;;;-1.47;100.00
54172;BME280;40076;52.354;4.970;2022-12-18T12:43:57;102402.03;;;-1.45;100.00
54172;BME280;40076;52.354;4.970;2022-12-18T12:46:24;102400.63;;;-1.41;100.00
54172;BME280;40076;52.354;4.970;2022-12-18T12:49:09;102397.59;;;-1.38;100.00
54172;BME280;40076;52.354;4.970;2022-12-18T12:51:45;102405.75;;;-1.39;100.00
54172;BME280;40076;52.354;4.970;2022-12-18T12:54:23;102409.22;;;-1.32;100.00
54172;BME280;40076;52.354;4.970;2022-12-18T12:56:57;102404.53;;;-1.30;100.00
54172;BME280;40076;52.354;4.970;2022-12-18T12:59:32;102405.94;;;-1.28;100.00
54172;BME280;40076;52.354;4.970;2022-12-18T13:08:31;102392.50;;;-1.20;100.00
54172;BME280;40076;52.354;4.970;2022-12-18T13:10:58;102382.72;;;-1.19;100.00
54172;BME280;40076;52.354;4.970;2022-12-18T13:13:50;102389.66;;;-1.18;100.00
54172;BME280;40076;52.354;4.970;2022-12-18T13:16:19;102382.13;;;-1.14;100.00
54172;BME280;40076;52.354;4.970;2022-12-18T13:18:52;102379.22;;;-1.13;100.00
54172;BME280;40076;52.354;4.970;2022-12-18T13:21:34;102376.19;;;-1.10;100.00
54172;BME280;40076;52.354;4.970;2022-12-18T13:24:26;102367.84;;;-1.07;100.00
54172;BME280;40076;52.354;4.970;2022-12-18T13:26:54;102361.72;;;-1.07;100.00
54172;BME280;40076;52.354;4.970;2022-12-18T13:29:42;102357.00;;;-1.05;100.00
54172;BME280;40076;52.354;4.970;2022-12-18T13:32:26;102350.47;;;-1.03;100.00
54172;BME280;40076;52.354;4.970;2022-12-18T13:37:54;102331.72;;;-1.01;100.00
54172;BME280;40076;52.354;4.970;2022-12-18T13:52:39;102302.50;;;-0.95;100.00
54172;BME280;40076;52.354;4.970;2022-12-18T13:55:18;102306.81;;;-0.94;100.00
54172;BME280;40076;52.354;4.970;2022-12-18T14:18:59;102279.03;;;-0.85;100.00
54172;BME280;40076;52.354;4.970;2022-12-18T14:21:33;102276.97;;;-0.83;100.00
54172;BME280;40076;52.354;4.970;2022-12-18T14:24:41;102281.03;;;-0.80;100.00
54172;BME280;40076;52.354;4.970;2022-12-18T14:30:53;102283.28;;;-0.77;100.00
54172;BME280;40076;52.354;4.970;2022-12-18T14:33:26;102274.09;;;-0.74;100.00
54172;BME280;40076;52.354;4.970;2022-12-18T14:36:54;102248.34;;;-0.67;100.00
54172;BME280;40076;52.354;4.970;2022-12-18T14:39:21;102249.34;;;-0.62;100.00
54172;BME280;40076;52.354;4.970;2022-12-18T14:41:51;102246.25;;;-0.59;100.00